Cosmopolis, Brazil
Current Conditions -  °F | °C
As of 12:00 PM on Friday 24 Oct 2014 (Local Time) from SBKP Reporting Station
Few Clouds Few Clouds  
Wind Chill: 84°   Ceiling: Unl
Heat Index: 84°   Visibility: 6mi
Dew Point: 61°   Wind: 9mph
Humidity: 45%   Direction: 340°NNW
Pressure: 30.03"   Gusts: NA
Location:  22.65°S, 47.2°W
Report Text: SBKP 241400Z 34008KT 9999 FEW035 29/16 Q1017
Loading
Personal Weather Stations






























Interactive Weather Map
Tropical Storm Tracking
New forecast layout! Learn more

10-Day Weather Forecast

Advertisements
Track Severe Weather on mobile